Time;durP1;ratioP1;P1;durP2;ratioP2;P2;SDS_P1;SDS_P2;PMS_P1;PMS_P2;Temp;Humidity;BMP_temperature;BMP_pressure;BME280_temperature;BME280_humidity;BME280_pressure;Samples;Min_cycle;Max_cycle;Signal;HPM_P1;HPM_P2
2022/10/09 00:01:31;;;;;;;7.47;4.40;;;;;;;5.87;100.00;101045.25;4995847;28;20218;-67
2022/10/09 00:03:57;;;;;;;6.17;4.73;;;;;;;5.82;100.00;101041.03;4993695;28;20192;-66
2022/10/09 00:06:32;;;;;;;8.13;4.73;;;;;;;5.76;100.00;101036.06;4993609;28;20610;-66
2022/10/09 00:09:00;;;;;;;5.77;4.60;;;;;;;5.78;100.00;101036.88;4993097;28;20194;-68
2022/10/09 00:11:27;;;;;;;8.20;4.43;;;;;;;5.69;100.00;101037.03;4999476;28;20304;-67
2022/10/09 00:13:54;;;;;;;6.67;3.90;;;;;;;5.57;100.00;101038.13;4988448;28;20188;-66
2022/10/09 00:16:20;;;;;;;7.73;4.57;;;;;;;5.66;100.00;101039.66;4992819;28;20612;-66
2022/10/09 00:18:47;;;;;;;7.50;4.63;;;;;;;5.55;100.00;101036.47;4994781;28;20259;-66
2022/10/09 00:21:32;;;;;;;7.17;4.37;;;;;;;5.46;100.00;101030.66;4986563;28;20321;-66
2022/10/09 00:24:01;;;;;;;7.07;4.33;;;;;;;5.34;100.00;101030.88;4992662;28;20241;-76
2022/10/09 00:26:27;;;;;;;5.67;4.20;;;;;;;5.45;100.00;101031.53;4993143;28;20198;-66
2022/10/09 00:28:52;;;;;;;6.63;4.17;;;;;;;5.44;100.00;101037.50;4993458;28;20186;-66
2022/10/09 00:31:18;;;;;;;6.13;4.17;;;;;;;5.42;100.00;101036.69;4986193;28;20580;-66
2022/10/09 00:33:44;;;;;;;7.80;4.30;;;;;;;5.34;100.00;101030.88;4979271;28;20191;-66
2022/10/09 00:36:15;;;;;;;7.23;3.67;;;;;;;5.32;100.00;101041.13;4992705;28;20863;-65
2022/10/09 00:38:40;;;;;;;11.23;4.00;;;;;;;5.26;100.00;101041.22;4992872;28;20203;-67
2022/10/09 00:41:06;;;;;;;7.13;3.50;;;;;;;5.24;100.00;101042.13;4991997;28;20634;-66
2022/10/09 00:43:39;;;;;;;7.97;3.60;;;;;;;5.18;100.00;101043.06;4992935;28;20270;-66
2022/10/09 00:46:05;;;;;;;7.00;3.87;;;;;;;5.29;100.00;101038.63;4992444;28;20184;-66
2022/10/09 00:48:32;;;;;;;3.87;3.50;;;;;;;5.25;100.00;101033.63;4992565;28;20274;-67
2022/10/09 00:51:00;;;;;;;6.03;4.07;;;;;;;5.20;100.00;101033.69;4991287;28;20239;-66
2022/10/09 00:53:28;;;;;;;5.87;3.53;;;;;;;5.16;100.00;101038.00;4992683;28;20180;-73
2022/10/09 00:55:54;;;;;;;5.80;3.60;;;;;;;5.11;100.00;101037.25;4992196;28;20191;-65
2022/10/09 00:58:21;;;;;;;5.07;3.70;;;;;;;5.08;100.00;101039.81;4992328;28;20203;-66
2022/10/09 01:00:47;;;;;;;7.17;3.90;;;;;;;5.09;100.00;101038.13;4985454;28;20253;-66
2022/10/09 01:03:12;;;;;;;4.30;3.27;;;;;;;5.06;100.00;101046.69;4992676;28;20639;-66
2022/10/09 01:05:58;;;;;;;5.30;3.80;;;;;;;5.07;100.00;101042.41;4993335;28;20207;-66
2022/10/09 01:08:29;;;;;;;8.57;3.70;;;;;;;5.04;100.00;101038.19;4999540;28;20261;-66
2022/10/09 01:10:58;;;;;;;4.73;3.40;;;;;;;5.02;100.00;101039.94;4986096;28;20285;-65
2022/10/09 01:13:37;;;;;;;4.80;3.73;;;;;;;4.93;100.00;101040.09;4992190;28;20195;-66
2022/10/09 01:16:13;;;;;;;5.93;4.00;;;;;;;5.03;100.00;101039.06;4991628;28;20179;-65
2022/10/09 01:18:48;;;;;;;4.27;3.47;;;;;;;4.93;100.00;101020.53;4992003;28;20215;-66
2022/10/09 01:21:18;;;;;;;5.10;3.60;;;;;;;4.94;100.00;101029.03;4985245;28;20222;-65
2022/10/09 01:24:15;;;;;;;7.97;4.30;;;;;;;4.72;100.00;101029.34;4991843;28;20678;-65
2022/10/09 01:27:02;;;;;;;6.23;3.83;;;;;;;4.86;100.00;101024.03;4992039;28;20191;-67
2022/10/09 01:29:35;;;;;;;4.73;3.73;;;;;;;4.81;100.00;101025.81;4992369;28;20186;-66
2022/10/09 01:32:02;;;;;;;5.03;3.47;;;;;;;4.82;100.00;101015.59;4984840;28;20392;-68
2022/10/09 01:34:30;;;;;;;7.57;4.23;;;;;;;4.84;100.00;101021.50;4991560;28;20175;-66
2022/10/09 01:36:57;;;;;;;6.03;4.10;;;;;;;4.73;100.00;101014.91;4993219;28;20207;-66
2022/10/09 01:39:24;;;;;;;6.50;4.17;;;;;;;4.82;100.00;101013.03;4992906;28;20211;-66
2022/10/09 01:41:50;;;;;;;6.43;3.60;;;;;;;4.79;100.00;101010.56;4996761;28;20241;-65
2022/10/09 01:44:21;;;;;;;6.80;4.23;;;;;;;4.77;100.00;101017.38;4993728;28;20571;-66
2022/10/09 01:46:47;;;;;;;10.17;4.07;;;;;;;4.65;100.00;101008.22;4991929;28;20183;-65
2022/10/09 01:49:26;;;;;;;5.97;3.90;;;;;;;4.63;100.00;101009.13;4991504;28;20215;-65
2022/10/09 01:52:00;;;;;;;6.97;4.00;;;;;;;4.58;100.00;101008.34;4984915;28;20230;-69
2022/10/09 01:54:40;;;;;;;7.73;4.33;;;;;;;4.57;100.00;101004.09;4992602;28;20186;-67
2022/10/09 01:57:09;;;;;;;8.77;4.17;;;;;;;4.62;100.00;101005.72;4991948;28;20277;-66
2022/10/09 01:59:40;;;;;;;4.70;3.67;;;;;;;4.57;100.00;100999.00;4992764;28;20235;-65
2022/10/09 02:02:07;;;;;;;11.37;4.30;;;;;;;4.53;100.00;100993.94;4984019;28;20226;-66
2022/10/09 02:04:34;;;;;;;5.70;4.10;;;;;;;4.60;100.00;100999.81;4991419;28;20187;-66
2022/10/09 02:06:59;;;;;;;6.40;4.70;;;;;;;4.56;100.00;100995.59;4998274;28;20184;-66
2022/10/09 02:09:24;;;;;;;7.23;4.60;;;;;;;4.58;100.00;100988.78;4993010;28;20190;-66
2022/10/09 02:11:56;;;;;;;6.57;4.43;;;;;;;4.53;100.00;100988.03;4996323;28;20226;-65
2022/10/09 02:14:21;;;;;;;7.40;4.30;;;;;;;4.53;100.00;100990.56;4990892;28;20229;-65
2022/10/09 02:17:00;;;;;;;9.67;4.73;;;;;;;4.61;100.00;100988.72;4992349;28;20555;-66
2022/10/09 02:19:35;;;;;;;9.00;4.50;;;;;;;4.49;100.00;100982.13;4991529;28;20611;-68
2022/10/09 02:22:10;;;;;;;5.87;4.10;;;;;;;4.45;100.00;100980.50;4984320;28;20233;-66
2022/10/09 02:24:38;;;;;;;6.73;4.30;;;;;;;4.56;100.00;100987.97;4990934;28;20194;-65
2022/10/09 02:27:04;;;;;;;7.70;4.73;;;;;;;4.45;100.00;100977.09;4991154;28;20184;-65
2022/10/09 02:29:29;;;;;;;6.17;3.93;;;;;;;4.49;100.00;100973.63;4991024;28;20179;-65
2022/10/09 02:31:55;;;;;;;8.10;4.60;;;;;;;4.46;100.00;100974.53;4996665;28;20373;-65
2022/10/09 02:34:21;;;;;;;7.10;4.70;;;;;;;4.46;100.00;100983.88;4992800;28;20194;-65
2022/10/09 02:36:48;;;;;;;4.60;4.07;;;;;;;4.42;100.00;100977.16;4992539;28;20672;-66
2022/10/09 02:39:13;;;;;;;6.43;4.83;;;;;;;4.35;100.00;100979.78;4990839;28;20191;-66
2022/10/09 02:41:39;;;;;;;6.27;4.30;;;;;;;4.34;100.00;100984.88;4983926;28;20248;-65
2022/10/09 02:44:05;;;;;;;5.10;4.30;;;;;;;4.33;100.00;100978.97;4990209;28;20230;-66
2022/10/09 02:46:30;;;;;;;8.13;4.30;;;;;;;4.29;100.00;100981.56;4991012;28;20186;-65
2022/10/09 02:48:56;;;;;;;6.23;4.63;;;;;;;4.32;100.00;100979.00;4992394;28;20230;-66
2022/10/09 02:51:21;;;;;;;6.83;4.50;;;;;;;4.28;100.00;100970.56;4992300;28;20222;-66
2022/10/09 02:53:47;;;;;;;7.63;4.90;;;;;;;4.27;100.00;100978.22;4990888;28;20190;-65
2022/10/09 02:56:12;;;;;;;9.17;4.50;;;;;;;4.28;100.00;100974.78;4991806;28;20522;-65
2022/10/09 02:58:37;;;;;;;9.67;5.07;;;;;;;4.30;100.00;100966.25;4990796;28;20202;-65
2022/10/09 03:01:03;;;;;;;6.03;4.53;;;;;;;4.28;100.00;100970.56;4979783;28;20296;-65
2022/10/09 03:03:29;;;;;;;10.83;5.43;;;;;;;4.25;100.00;100970.59;4985185;28;20172;-65
2022/10/09 03:06:09;;;;;;;7.30;5.43;;;;;;;4.19;100.00;100968.97;4987418;28;20548;-65
2022/10/09 03:08:37;;;;;;;9.13;4.83;;;;;;;4.18;100.00;100969.84;4982015;28;20206;-65
2022/10/09 03:11:02;;;;;;;12.97;5.83;;;;;;;4.12;100.00;100969.06;4983749;28;20296;-65
2022/10/09 03:13:27;;;;;;;6.33;5.57;;;;;;;4.13;100.00;100971.63;4990620;28;20635;-65
2022/10/09 03:15:53;;;;;;;10.77;5.93;;;;;;;4.12;100.00;100976.69;4988129;28;20257;-65
2022/10/09 03:18:18;;;;;;;8.07;5.30;;;;;;;4.15;100.00;100972.41;5000649;28;20285;-65
2022/10/09 03:20:43;;;;;;;10.67;5.40;;;;;;;4.13;100.00;100965.66;4987203;28;20237;-65
2022/10/09 03:23:09;;;;;;;6.30;5.43;;;;;;;4.05;100.00;100975.97;5001980;28;20207;-65
2022/10/09 03:25:34;;;;;;;10.33;5.50;;;;;;;3.96;100.00;100968.47;4991391;28;20215;-67
2022/10/09 03:27:59;;;;;;;10.87;6.10;;;;;;;3.82;100.00;100969.47;4990274;28;20233;-65
2022/10/09 03:30:24;;;;;;;11.13;5.37;;;;;;;3.85;100.00;100981.31;4963555;28;20223;-65
2022/10/09 03:32:50;;;;;;;8.63;5.30;;;;;;;3.99;100.00;100976.03;4998649;28;20230;-65
2022/10/09 03:35:15;;;;;;;6.63;5.70;;;;;;;4.03;100.00;100975.13;4987857;28;20641;-66
2022/10/09 03:37:40;;;;;;;7.77;5.10;;;;;;;3.96;100.00;100979.47;4995318;28;20257;-67
2022/10/09 03:40:06;;;;;;;6.50;5.77;;;;;;;3.99;100.00;100978.59;4984324;28;20662;-67
2022/10/09 03:42:31;;;;;;;7.57;6.00;;;;;;;3.97;100.00;100975.22;4993809;28;20254;-66
2022/10/09 03:44:59;;;;;;;9.07;5.97;;;;;;;3.93;100.00;100978.66;4995039;28;20222;-65
2022/10/09 03:47:25;;;;;;;8.13;5.53;;;;;;;3.96;100.00;100979.47;4995362;28;20544;-65
2022/10/09 03:49:50;;;;;;;6.60;5.30;;;;;;;3.98;100.00;100974.34;4993751;28;20236;-65
2022/10/09 03:52:15;;;;;;;7.53;5.53;;;;;;;3.95;100.00;100979.50;4999936;28;20737;-67
2022/10/09 03:54:40;;;;;;;6.53;5.40;;;;;;;3.89;100.00;100988.03;4994554;28;20187;-67
2022/10/09 03:57:06;;;;;;;7.50;5.77;;;;;;;3.97;100.00;100981.16;4994621;28;20340;-65
2022/10/09 03:59:31;;;;;;;13.20;5.03;;;;;;;3.98;100.00;100981.97;4993759;28;20202;-66
2022/10/09 04:01:56;;;;;;;9.80;5.93;;;;;;;3.88;100.00;100984.66;4995411;28;20228;-77
2022/10/09 04:04:22;;;;;;;9.37;6.00;;;;;;;3.95;100.00;100985.41;5000423;28;20202;-65
2022/10/09 04:06:47;;;;;;;7.03;5.70;;;;;;;3.91;100.00;100983.78;4993683;28;20209;-65
2022/10/09 04:09:12;;;;;;;13.03;6.90;;;;;;;3.84;100.00;100985.53;4994870;28;20193;-65
2022/10/09 04:11:37;;;;;;;11.27;5.83;;;;;;;3.91;100.00;100988.00;4986222;28;20219;-65
2022/10/09 04:14:03;;;;;;;10.07;6.60;;;;;;;3.92;100.00;100982.06;4997084;28;20582;-65
2022/10/09 04:16:28;;;;;;;9.00;6.90;;;;;;;3.91;100.00;100988.88;4994975;28;20668;-65
2022/10/09 04:18:53;;;;;;;8.40;5.90;;;;;;;3.92;100.00;100993.09;4994438;28;20681;-66
2022/10/09 04:21:18;;;;;;;11.33;6.63;;;;;;;3.89;100.00;100988.03;4994638;28;20313;-65
2022/10/09 04:23:44;;;;;;;10.57;6.27;;;;;;;3.81;100.00;100977.13;4999749;28;20183;-66
2022/10/09 04:26:11;;;;;;;12.43;6.77;;;;;;;3.81;100.00;100975.41;4994057;28;20191;-65
2022/10/09 04:28:36;;;;;;;8.90;6.60;;;;;;;3.72;100.00;100976.38;4993300;28;20184;-66
2022/10/09 04:31:01;;;;;;;6.93;6.23;;;;;;;3.76;100.00;100974.63;4992040;28;20320;-65
2022/10/09 04:33:27;;;;;;;9.10;6.33;;;;;;;3.75;100.00;100980.59;5002132;28;20596;-66
2022/10/09 04:35:54;;;;;;;8.70;5.93;;;;;;;3.72;100.00;100973.81;4993866;28;20184;-65
2022/10/09 04:38:20;;;;;;;9.77;6.90;;;;;;;3.67;100.00;100977.28;4992643;28;20210;-65
2022/10/09 04:41:03;;;;;;;13.17;8.10;;;;;;;3.60;100.00;100983.28;4985609;28;20296;-67
2022/10/09 04:43:29;;;;;;;14.87;6.63;;;;;;;3.76;100.00;100979.72;4993130;28;20718;-65
2022/10/09 04:45:54;;;;;;;11.43;7.07;;;;;;;3.72;100.00;100978.91;4992726;28;20289;-66
2022/10/09 04:48:20;;;;;;;7.10;6.37;;;;;;;3.79;100.00;100982.22;4993996;28;20571;-65
2022/10/09 04:50:45;;;;;;;10.20;6.80;;;;;;;3.79;100.00;100982.22;4989392;28;20240;-64
2022/10/09 04:53:10;;;;;;;12.47;6.90;;;;;;;3.84;100.00;100980.44;4992750;28;20291;-66
2022/10/09 04:55:43;;;;;;;11.53;6.83;;;;;;;3.72;100.00;100978.91;4993568;28;20272;-66
2022/10/09 04:58:09;;;;;;;10.93;7.47;;;;;;;3.77;100.00;100980.56;4993188;28;20206;-65
2022/10/09 05:00:42;;;;;;;11.53;7.03;;;;;;;3.65;100.00;100981.56;4985825;28;20218;-65
2022/10/09 05:03:08;;;;;;;10.17;6.73;;;;;;;3.74;100.00;100967.88;4992470;28;20269;-65
2022/10/09 05:05:34;;;;;;;9.20;6.07;;;;;;;3.70;100.00;100973.00;4982433;28;20183;-67
2022/10/09 05:07:59;;;;;;;11.17;7.43;;;;;;;3.79;100.00;100973.75;4985529;28;20198;-65
2022/10/09 05:10:24;;;;;;;10.43;6.90;;;;;;;3.86;100.00;100975.38;4985798;28;20222;-65
2022/10/09 05:12:50;;;;;;;8.27;6.90;;;;;;;3.87;100.00;100970.25;5005798;28;20725;-66
2022/10/09 05:15:15;;;;;;;13.13;7.33;;;;;;;3.81;100.00;100960.16;4993271;28;20533;-65
2022/10/09 05:17:41;;;;;;;10.53;6.67;;;;;;;3.77;100.00;100963.59;4992426;28;20193;-66
2022/10/09 05:20:07;;;;;;;17.00;7.43;;;;;;;3.75;100.00;100967.03;4983648;28;20185;-66
2022/10/09 05:22:32;;;;;;;10.53;6.47;;;;;;;3.73;100.00;100967.03;5007859;28;20262;-66
2022/10/09 05:24:57;;;;;;;12.37;7.20;;;;;;;3.65;100.00;100973.94;4993185;28;20611;-66
2022/10/09 05:27:23;;;;;;;7.73;6.70;;;;;;;3.76;100.00;100971.22;4993362;28;20188;-66
2022/10/09 05:29:48;;;;;;;11.83;6.87;;;;;;;3.73;100.00;100972.13;4993337;28;20219;-65
2022/10/09 05:32:13;;;;;;;12.53;7.63;;;;;;;3.72;100.00;100972.97;4997973;28;20221;-66
2022/10/09 05:34:39;;;;;;;9.77;6.63;;;;;;;3.69;100.00;100971.31;4991532;28;20179;-66
2022/10/09 05:37:04;;;;;;;8.30;6.80;;;;;;;3.69;100.00;100973.84;4993014;28;20200;-65
2022/10/09 05:39:31;;;;;;;8.37;6.57;;;;;;;3.72;100.00;100978.06;4978432;28;20199;-66
2022/10/09 05:41:56;;;;;;;10.97;6.57;;;;;;;3.62;100.00;100981.59;4985224;28;20241;-66
2022/10/09 05:44:22;;;;;;;12.07;7.90;;;;;;;3.72;100.00;100978.91;4993042;28;20564;-66
2022/10/09 05:46:47;;;;;;;12.90;7.57;;;;;;;3.71;100.00;100981.50;4993191;28;20207;-65
2022/10/09 05:49:12;;;;;;;7.43;6.60;;;;;;;3.77;100.00;100978.88;4992683;28;20697;-65
2022/10/09 05:51:41;;;;;;;11.50;6.93;;;;;;;3.82;100.00;100981.34;4984821;28;20225;-65
2022/10/09 05:54:06;;;;;;;9.57;7.40;;;;;;;3.74;100.00;100980.59;4991100;28;20203;-66
2022/10/09 05:56:37;;;;;;;13.27;7.30;;;;;;;3.83;100.00;100977.94;4992128;28;20191;-66
2022/10/09 05:59:08;;;;;;;14.40;6.73;;;;;;;3.88;100.00;100977.03;4991587;28;20726;-66
2022/10/09 06:01:40;;;;;;;10.17;7.47;;;;;;;3.94;100.00;100977.81;4984631;28;20230;-66
2022/10/09 06:04:08;;;;;;;9.00;7.63;;;;;;;3.94;100.00;100971.00;4990750;28;20194;-65
2022/10/09 06:06:37;;;;;;;10.63;7.47;;;;;;;4.00;100.00;100972.63;4985851;28;20286;-65
2022/10/09 06:09:03;;;;;;;11.30;7.80;;;;;;;3.92;100.00;100979.53;4982314;28;20239;-65
2022/10/09 06:11:30;;;;;;;10.63;7.90;;;;;;;4.01;100.00;100974.31;4968268;28;20218;-65
2022/10/09 06:13:57;;;;;;;10.93;7.97;;;;;;;4.17;100.00;100973.25;4976760;28;20172;-66
2022/10/09 06:16:29;;;;;;;12.27;8.23;;;;;;;4.22;100.00;100979.97;4986472;28;20197;-66
2022/10/09 06:18:54;;;;;;;11.57;8.57;;;;;;;4.34;100.00;100979.78;4985433;28;20742;-65
2022/10/09 06:21:22;;;;;;;10.83;7.37;;;;;;;4.45;100.00;100972.00;4982405;28;20251;-65
2022/10/09 06:23:53;;;;;;;11.70;8.07;;;;;;;4.56;100.00;100979.50;4995724;28;20728;-65
2022/10/09 06:26:20;;;;;;;11.47;8.17;;;;;;;4.82;100.00;100974.78;4990892;28;20187;-65
2022/10/09 06:28:46;;;;;;;10.40;8.70;;;;;;;5.11;100.00;100970.06;4992439;28;20191;-65
2022/10/09 06:31:15;;;;;;;11.17;8.87;;;;;;;5.35;100.00;100971.34;4975270;28;20227;-61
2022/10/09 06:33:42;;;;;;;9.40;8.40;;;;;;;5.81;100.00;100969.59;4971412;28;20192;-71
2022/10/09 06:36:10;;;;;;;8.27;7.23;;;;;;;6.37;100.00;100965.84;4969503;28;20631;-65
2022/10/09 06:38:36;;;;;;;9.07;5.70;;;;;;;8.07;100.00;100963.91;4970833;28;20209;-64
2022/10/09 06:41:04;;;;;;;7.87;5.67;;;;;;;8.56;100.00;100956.47;4970868;28;20225;-67
2022/10/09 06:43:29;;;;;;;8.37;5.10;;;;;;;8.63;100.00;100945.09;4990584;28;20292;-66
2022/10/09 06:45:55;;;;;;;8.27;5.47;;;;;;;9.09;100.00;100949.56;4991695;28;20185;-65
2022/10/09 06:48:20;;;;;;;6.40;4.90;;;;;;;9.89;100.00;100949.25;4991080;28;20182;-65
2022/10/09 06:50:46;;;;;;;5.63;4.33;;;;;;;12.08;100.00;100948.63;4987607;28;20283;-65
2022/10/09 06:53:11;;;;;;;5.13;4.07;;;;;;;13.42;86.69;100941.16;4989862;28;20207;-66
2022/10/09 06:55:36;;;;;;;8.37;3.80;;;;;;;12.26;89.43;100946.94;4993772;28;20201;-65
2022/10/09 06:58:02;;;;;;;8.93;3.70;;;;;;;12.46;89.12;100948.53;4991784;28;20211;-66
2022/10/09 07:00:27;;;;;;;8.13;4.00;;;;;;;13.77;82.03;100950.50;4974949;28;20678;-65
2022/10/09 07:02:52;;;;;;;4.93;3.77;;;;;;;14.90;72.70;100947.59;5013705;28;20560;-65
2022/10/09 07:05:18;;;;;;;4.43;3.03;;;;;;;16.00;64.22;100960.84;4990406;28;20183;-65
2022/10/09 07:07:43;;;;;;;4.23;3.20;;;;;;;16.87;56.06;100956.88;4992244;28;20180;-65
2022/10/09 07:10:09;;;;;;;6.67;3.47;;;;;;;17.86;51.69;100957.03;4985504;28;20246;-65
2022/10/09 07:12:35;;;;;;;8.57;3.10;;;;;;;17.80;52.26;100950.53;4994744;28;20183;-66
2022/10/09 07:15:03;;;;;;;5.07;2.90;;;;;;;16.90;54.71;100958.44;4993710;28;20202;-66
2022/10/09 07:17:28;;;;;;;4.63;3.00;;;;;;;17.20;53.52;100954.72;4968740;28;20292;-66
2022/10/09 07:19:53;;;;;;;4.30;2.87;;;;;;;16.85;54.40;100963.94;4996014;28;20671;-66
2022/10/09 07:22:19;;;;;;;5.93;2.77;;;;;;;15.27;65.31;100966.13;5000732;28;20222;-66
2022/10/09 07:24:44;;;;;;;4.37;2.50;;;;;;;14.19;72.41;100972.34;4995545;28;20643;-65
2022/10/09 07:27:09;;;;;;;7.17;4.63;;;;;;;12.97;84.28;100971.81;4995683;28;20184;-65
2022/10/09 07:29:35;;;;;;;16.07;3.20;;;;;;;11.98;93.19;100975.75;4994257;28;20176;-65
2022/10/09 07:32:00;;;;;;;7.63;3.43;;;;;;;11.28;99.76;100981.41;4967364;28;20662;-65
2022/10/09 07:34:25;;;;;;;5.57;2.97;;;;;;;10.98;100.00;100976.69;4993731;28;20171;-65
2022/10/09 07:36:51;;;;;;;7.60;3.30;;;;;;;10.30;100.00;100975.06;4995721;28;20245;-64
2022/10/09 07:39:19;;;;;;;7.90;3.57;;;;;;;9.96;100.00;100973.81;4995248;28;20207;-65
2022/10/09 07:41:46;;;;;;;10.40;3.60;;;;;;;9.53;100.00;100967.69;4987324;28;20227;-64
2022/10/09 07:44:11;;;;;;;10.87;3.13;;;;;;;9.45;100.00;100967.97;4996475;28;20184;-66
2022/10/09 07:46:37;;;;;;;5.70;3.33;;;;;;;9.06;100.00;100972.78;4994362;28;20194;-65
2022/10/09 07:49:03;;;;;;;4.87;3.57;;;;;;;9.00;100.00;100966.94;4995140;28;20220;-65
2022/10/09 07:51:29;;;;;;;8.93;3.80;;;;;;;9.20;100.00;100962.88;4982834;28;20805;-65
2022/10/09 07:53:56;;;;;;;5.03;3.37;;;;;;;9.38;100.00;100963.97;4992717;28;20552;-64
2022/10/09 07:56:24;;;;;;;6.60;3.37;;;;;;;9.07;100.00;100959.91;4993425;28;20278;-65
2022/10/09 07:58:52;;;;;;;6.13;3.70;;;;;;;8.92;100.00;100962.97;4994081;28;20584;-65
2022/10/09 08:01:18;;;;;;;6.60;3.70;;;;;;;8.84;100.00;100964.09;4986647;28;20333;-66
2022/10/09 08:03:45;;;;;;;7.40;3.83;;;;;;;8.88;100.00;100960.53;4993655;28;20184;-65
2022/10/09 08:06:11;;;;;;;12.70;4.20;;;;;;;8.81;100.00;100966.75;4993186;28;20274;-65
2022/10/09 08:08:36;;;;;;;7.73;3.90;;;;;;;8.88;100.00;100959.66;4993816;28;20286;-64
2022/10/09 08:11:10;;;;;;;7.30;3.50;;;;;;;8.81;100.00;100958.22;4992535;28;20369;-66
2022/10/09 08:13:36;;;;;;;6.37;3.47;;;;;;;8.88;100.00;100949.41;4981141;28;20175;-64
2022/10/09 08:16:01;;;;;;;7.20;3.60;;;;;;;9.00;100.00;100951.56;4993177;28;20214;-64
2022/10/09 08:18:26;;;;;;;5.17;3.30;;;;;;;9.07;100.00;100951.34;4994318;28;20509;-67
2022/10/09 08:20:59;;;;;;;8.53;3.60;;;;;;;9.28;100.00;100952.31;4990901;28;20227;-65
2022/10/09 08:23:25;;;;;;;8.50;3.90;;;;;;;9.50;100.00;100949.81;4993473;28;20270;-65
2022/10/09 08:25:51;;;;;;;4.83;2.93;;;;;;;9.61;100.00;100937.44;4992616;28;20589;-65
2022/10/09 08:28:16;;;;;;;6.17;3.23;;;;;;;9.53;100.00;100949.72;4993259;28;20691;-65
2022/10/09 08:30:42;;;;;;;5.93;3.20;;;;;;;9.53;100.00;100944.59;4989483;28;20222;-66
2022/10/09 08:33:07;;;;;;;5.83;3.10;;;;;;;9.62;100.00;100943.41;5004989;28;20186;-66
2022/10/09 08:35:32;;;;;;;7.37;3.47;;;;;;;9.79;100.00;100943.59;4994240;28;20179;-66
2022/10/09 08:37:57;;;;;;;7.73;3.93;;;;;;;9.94;100.00;100939.63;4994292;28;20257;-66
2022/10/09 08:40:32;;;;;;;8.80;3.63;;;;;;;9.88;100.00;100934.72;4987241;28;20234;-64
2022/10/09 08:43:05;;;;;;;7.00;5.03;;;;;;;9.74;100.00;100932.66;4993378;28;20245;-64
2022/10/09 08:45:33;;;;;;;6.10;3.83;;;;;;;9.87;100.00;100934.78;4994024;28;20270;-65
2022/10/09 08:48:03;;;;;;;7.40;3.83;;;;;;;10.06;100.00;100922.03;4992190;28;20180;-64
2022/10/09 08:50:33;;;;;;;7.30;3.80;;;;;;;10.31;100.00;100927.88;4985631;28;20247;-64
2022/10/09 08:53:12;;;;;;;7.57;3.40;;;;;;;10.98;100.00;100926.00;4992665;28;20661;-65
2022/10/09 08:55:47;;;;;;;4.07;3.43;;;;;;;12.10;100.00;100921.84;4992591;28;20190;-75
2022/10/09 08:58:16;;;;;;;6.80;2.97;;;;;;;13.70;94.25;100921.56;4992768;28;20269;-65
2022/10/09 09:01:01;;;;;;;8.80;3.40;;;;;;;15.55;74.47;100912.56;4985717;28;20241;-65
2022/10/09 09:03:39;;;;;;;5.47;3.00;;;;;;;15.14;74.89;100916.81;4980066;28;20640;-64
2022/10/09 09:06:11;;;;;;;5.20;2.80;;;;;;;15.42;74.81;100916.88;4992072;28;20246;-63
2022/10/09 09:08:55;;;;;;;4.67;2.40;;;;;;;18.56;53.63;100911.16;4994102;28;20187;-64
2022/10/09 09:11:29;;;;;;;5.47;2.90;;;;;;;17.30;56.36;100902.91;4993572;28;20301;-64
2022/10/09 09:14:19;;;;;;;5.77;3.10;;;;;;;16.48;62.76;100898.06;4997958;28;20210;-64
2022/10/09 09:17:13;;;;;;;8.23;2.73;;;;;;;15.12;70.48;100899.66;4992126;28;20186;-64
2022/10/09 09:19:56;;;;;;;4.37;2.80;;;;;;;17.18;60.23;100896.78;4993546;28;20651;-64
2022/10/09 09:22:23;;;;;;;8.97;3.30;;;;;;;15.95;65.24;100891.06;4983316;28;20337;-63
2022/10/09 09:24:54;;;;;;;6.80;2.70;;;;;;;16.39;64.33;100882.13;4991856;28;20187;-64
2022/10/09 09:27:40;;;;;;;4.80;3.13;;;;;;;16.82;59.41;100882.78;4993349;28;20175;-63
2022/10/09 09:30:11;;;;;;;4.43;2.50;;;;;;;17.51;57.15;100877.97;4981899;28;20195;-63
2022/10/09 09:32:51;;;;;;;5.63;2.87;;;;;;;16.62;60.50;100877.16;4991318;28;20191;-64
2022/10/09 09:35:45;;;;;;;4.60;2.20;;;;;;;18.27;51.00;100872.53;4991832;28;20186;-64
2022/10/09 09:38:12;;;;;;;4.50;2.23;;;;;;;18.07;54.85;100866.19;4981177;28;20214;-64
2022/10/09 09:40:37;;;;;;;3.83;2.20;;;;;;;17.36;59.19;100876.47;4984704;28;20223;-65
2022/10/09 09:43:26;;;;;;;4.13;2.80;;;;;;;17.57;56.55;100863.69;5004253;28;20195;-64
2022/10/09 09:45:58;;;;;;;5.57;2.30;;;;;;;18.35;52.34;100866.72;4988840;28;20241;-65
2022/10/09 09:48:40;;;;;;;3.53;2.03;;;;;;;18.18;51.31;100866.22;4992114;28;20195;-64
2022/10/09 09:51:17;;;;;;;4.37;2.33;;;;;;;17.02;58.59;100868.47;4984829;28;20218;-64
2022/10/09 09:53:47;;;;;;;4.67;2.30;;;;;;;17.50;56.89;100865.06;4991863;28;20277;-64
2022/10/09 09:56:13;;;;;;;5.27;2.23;;;;;;;17.82;55.44;100857.53;4992563;28;20179;-67
2022/10/09 09:58:46;;;;;;;3.27;2.23;;;;;;;17.95;51.94;100852.31;4992762;28;20319;-64
2022/10/09 10:01:23;;;;;;;3.30;2.07;;;;;;;17.18;56.68;100844.78;4983652;28;20321;-66
2022/10/09 10:03:51;;;;;;;5.17;2.00;;;;;;;17.18;58.50;100839.59;4997798;28;20521;-63
2022/10/09 10:06:29;;;;;;;4.43;2.47;;;;;;;17.55;57.52;100840.41;4990800;28;20190;-65
2022/10/09 10:09:02;;;;;;;3.73;2.63;;;;;;;15.39;69.30;100845.28;4991721;28;20195;-64
2022/10/09 10:11:29;;;;;;;4.00;2.30;;;;;;;14.26;80.70;100841.69;4984774;28;20242;-67
2022/10/09 10:13:55;;;;;;;3.73;2.40;;;;;;;14.41;83.89;100834.78;4991298;28;20186;-64
2022/10/09 10:16:27;;;;;;;4.53;2.30;;;;;;;14.55;84.35;100836.56;4990617;28;20176;-64
2022/10/09 10:18:55;;;;;;;3.80;2.10;;;;;;;14.20;81.61;100826.50;4991352;28;20211;-64
2022/10/09 10:21:21;;;;;;;2.77;2.17;;;;;;;14.03;87.53;100833.50;4984243;28;20238;-63
2022/10/09 10:23:58;;;;;;;5.53;2.13;;;;;;;13.71;86.23;100827.56;4990927;28;20237;-65
2022/10/09 10:26:42;;;;;;;5.80;2.40;;;;;;;13.84;85.99;100823.38;4990980;28;20322;-64
2022/10/09 10:29:19;;;;;;;4.57;2.23;;;;;;;13.72;86.08;100816.31;4992935;28;20194;-63
2022/10/09 10:32:15;;;;;;;3.87;2.40;;;;;;;13.64;86.87;100810.75;4982529;28;20225;-64
2022/10/09 10:34:50;;;;;;;4.00;2.13;;;;;;;13.45;84.47;100809.19;4979464;28;20179;-64
2022/10/09 10:37:18;;;;;;;3.33;2.10;;;;;;;13.45;85.69;100800.59;4990918;28;20214;-64
2022/10/09 10:40:00;;;;;;;5.47;2.40;;;;;;;13.52;85.96;100800.16;4991184;28;20730;-64
2022/10/09 10:42:40;;;;;;;4.70;2.27;;;;;;;13.76;84.28;100794.53;4981635;28;20219;-64
2022/10/09 10:45:14;;;;;;;3.60;2.07;;;;;;;13.83;84.06;100790.69;4993926;28;20287;-64
2022/10/09 10:47:46;;;;;;;3.13;1.93;;;;;;;13.77;84.32;100790.19;5011896;28;20183;-64
2022/10/09 10:50:14;;;;;;;2.97;2.10;;;;;;;13.96;84.40;100787.38;4986120;28;20265;-64
2022/10/09 10:52:49;;;;;;;6.63;2.60;;;;;;;13.97;83.52;100789.88;4995271;28;20175;-65
2022/10/09 10:55:32;;;;;;;4.07;2.70;;;;;;;13.92;82.14;100776.38;4994975;28;20238;-64
2022/10/09 10:57:57;;;;;;;6.50;2.27;;;;;;;13.94;82.76;100782.31;4994522;28;20195;-65
2022/10/09 11:00:23;;;;;;;8.80;2.73;;;;;;;13.82;81.41;100776.09;4974979;28;20230;-65
2022/10/09 11:03:05;;;;;;;4.43;2.40;;;;;;;13.70;84.32;100780.19;4981501;28;20186;-65
2022/10/09 11:05:52;;;;;;;3.07;1.87;;;;;;;13.88;81.84;100767.16;4994625;28;20541;-65
2022/10/09 11:08:25;;;;;;;8.43;2.40;;;;;;;13.85;80.35;100767.31;4995763;28;20187;-65
2022/10/09 11:11:07;;;;;;;4.87;2.20;;;;;;;13.93;81.58;100766.88;4992339;28;20305;-64
2022/10/09 11:13:46;;;;;;;4.60;2.10;;;;;;;14.02;80.51;100764.56;4995052;28;20187;-65
2022/10/09 11:16:34;;;;;;;4.23;2.33;;;;;;;13.97;81.51;100764.00;4987560;28;20280;-65
2022/10/09 11:19:24;;;;;;;3.37;2.20;;;;;;;14.09;78.80;100761.63;4994797;28;20199;-65
2022/10/09 11:22:12;;;;;;;7.83;2.87;;;;;;;14.26;79.84;100753.69;4985744;28;20219;-65
2022/10/09 11:24:48;;;;;;;4.23;2.10;;;;;;;14.40;77.25;100754.63;4994430;28;20187;-65
2022/10/09 11:27:19;;;;;;;5.70;2.00;;;;;;;14.31;75.89;100743.09;4994605;28;20335;-65
2022/10/09 11:29:59;;;;;;;2.90;1.90;;;;;;;14.35;71.95;100734.19;4994839;28;20202;-66
2022/10/09 11:32:52;;;;;;;5.10;2.13;;;;;;;14.34;73.81;100727.38;4961427;28;20215;-65
2022/10/09 11:35:21;;;;;;;3.13;1.80;;;;;;;14.19;72.55;100724.78;4994079;28;20700;-66